Time;durP1;ratioP1;P1;durP2;ratioP2;P2;SDS_P1;SDS_P2;PMS_P1;PMS_P2;Temp;Humidity;BMP_temperature;BMP_pressure;BME280_temperature;BME280_humidity;BME280_pressure;Samples;Min_cycle;Max_cycle;Signal;HPM_P1;HPM_P2
2022/06/19 00:01:48;;;;;;;7.93;1.80;;;22.30;51.50;;;;;;5093486;28;20107;-68
2022/06/19 00:04:13;;;;;;;7.20;1.80;;;22.30;51.60;;;;;;5093385;28;20035;-68
2022/06/19 00:06:39;;;;;;;9.15;2.08;;;22.20;51.70;;;;;;5093387;28;20084;-68
2022/06/19 00:09:06;;;;;;;5.13;1.60;;;22.20;51.50;;;;;;5093281;28;20059;-69
2022/06/19 00:11:33;;;;;;;5.65;1.80;;;22.20;51.60;;;;;;5093351;28;20021;-68
2022/06/19 00:13:59;;;;;;;6.78;1.40;;;22.10;51.60;;;;;;5093323;28;20032;-68
2022/06/19 00:16:25;;;;;;;8.10;1.95;;;22.00;51.60;;;;;;5093276;28;20021;-68
2022/06/19 00:18:51;;;;;;;10.50;1.63;;;22.00;51.60;;;;;;5092284;28;20024;-68
2022/06/19 00:21:17;;;;;;;7.38;1.75;;;22.00;51.70;;;;;;5092268;28;20021;-68
2022/06/19 00:23:45;;;;;;;5.55;1.70;;;21.90;52.80;;;;;;5093154;28;20074;-68
2022/06/19 00:26:11;;;;;;;9.02;1.80;;;21.80;51.90;;;;;;5093330;28;20025;-68
2022/06/19 00:28:37;;;;;;;8.07;1.70;;;21.80;52.10;;;;;;5092837;28;20021;-68
2022/06/19 00:31:02;;;;;;;8.85;2.10;;;21.80;52.10;;;;;;5093100;28;20036;-68
2022/06/19 00:33:28;;;;;;;5.85;1.63;;;21.80;52.20;;;;;;5093111;28;20024;-68
2022/06/19 00:35:54;;;;;;;7.13;1.88;;;21.80;52.20;;;;;;5093169;28;20024;-68
2022/06/19 00:38:20;;;;;;;8.45;2.15;;;21.70;52.10;;;;;;5093028;28;20036;-68
2022/06/19 00:40:45;;;;;;;9.85;1.75;;;21.70;52.00;;;;;;5093070;28;20054;-68
2022/06/19 00:43:11;;;;;;;7.82;1.80;;;21.50;52.00;;;;;;5092964;28;20024;-68
2022/06/19 00:45:39;;;;;;;7.95;1.83;;;21.50;52.00;;;;;;5093007;28;20108;-68
2022/06/19 00:48:14;;;;;;;9.43;1.88;;;21.50;52.00;;;;;;5092974;28;20024;-68
2022/06/19 00:50:42;;;;;;;5.68;2.00;;;21.50;51.70;;;;;;5093258;28;20013;-68
2022/06/19 00:53:13;;;;;;;8.50;1.80;;;21.40;51.60;;;;;;5092947;28;20045;-68
2022/06/19 00:55:41;;;;;;;8.55;2.20;;;21.40;51.40;;;;;;5092962;28;20464;-68
2022/06/19 00:58:30;;;;;;;8.35;2.47;;;21.30;51.50;;;;;;5092850;28;20017;-68
2022/06/19 01:01:01;;;;;;;6.00;1.58;;;21.30;51.70;;;;;;5084479;28;20395;-68
2022/06/19 01:03:38;;;;;;;8.98;2.00;;;21.20;51.90;;;;;;5092782;28;20021;-68
2022/06/19 01:06:06;;;;;;;9.07;1.73;;;21.30;51.90;;;;;;5092840;28;20020;-68
2022/06/19 01:08:32;;;;;;;6.55;1.90;;;21.20;51.90;;;;;;5092664;28;20054;-68
2022/06/19 01:10:58;;;;;;;5.45;1.65;;;21.20;51.70;;;;;;5091841;28;20024;-68
2022/06/19 01:13:27;;;;;;;8.80;2.00;;;21.10;51.70;;;;;;5092757;28;20032;-68
2022/06/19 01:15:53;;;;;;;8.10;1.85;;;21.20;51.80;;;;;;5092697;28;20020;-68
2022/06/19 01:18:20;;;;;;;8.13;2.00;;;21.20;51.60;;;;;;5092683;28;20054;-68
2022/06/19 01:20:46;;;;;;;9.55;2.03;;;21.10;51.30;;;;;;5092652;28;20020;-68
2022/06/19 01:23:32;;;;;;;6.95;1.85;;;21.10;51.40;;;;;;5092661;28;20025;-68
2022/06/19 01:25:58;;;;;;;7.65;1.63;;;21.00;51.60;;;;;;5092762;28;20024;-68
2022/06/19 01:28:46;;;;;;;9.77;1.67;;;20.90;51.90;;;;;;5092530;28;20042;-68
2022/06/19 01:31:21;;;;;;;5.43;1.85;;;20.90;51.90;;;;;;5092634;28;20042;-68
2022/06/19 01:34:26;;;;;;;12.23;1.98;;;20.90;51.70;;;;;;5092689;28;20043;-68
2022/06/19 01:37:01;;;;;;;7.18;2.20;;;20.80;51.50;;;;;;5092518;28;20036;-68
2022/06/19 01:39:31;;;;;;;8.70;2.20;;;20.80;51.70;;;;;;5092588;28;20020;-68
2022/06/19 01:41:57;;;;;;;9.25;1.75;;;20.70;51.90;;;;;;5094897;28;20021;-68
2022/06/19 01:44:23;;;;;;;8.45;1.80;;;20.60;52.10;;;;;;5096068;28;20119;-68
2022/06/19 01:46:50;;;;;;;8.15;1.70;;;20.60;52.30;;;;;;5095987;28;20017;-68
2022/06/19 01:49:15;;;;;;;7.88;1.60;;;20.60;52.20;;;;;;5095944;28;20056;-68
2022/06/19 01:51:41;;;;;;;8.55;1.65;;;20.60;52.00;;;;;;5095930;28;20029;-68
2022/06/19 01:54:15;;;;;;;6.93;1.30;;;20.50;52.10;;;;;;5095876;28;20024;-68
2022/06/19 01:56:41;;;;;;;6.05;1.48;;;20.60;51.90;;;;;;5095994;28;20021;-68
2022/06/19 01:59:09;;;;;;;7.13;1.40;;;20.50;51.60;;;;;;5095798;28;20044;-68
2022/06/19 02:01:36;;;;;;;8.57;2.22;;;20.50;51.40;;;;;;5095749;28;20024;-68
2022/06/19 02:04:04;;;;;;;7.75;1.52;;;20.50;51.30;;;;;;5095624;28;20080;-68
2022/06/19 02:06:43;;;;;;;8.32;1.38;;;20.40;50.90;;;;;;5095627;28;20024;-68
2022/06/19 02:09:09;;;;;;;10.32;1.83;;;20.40;50.60;;;;;;5095458;28;20045;-68
2022/06/19 02:11:35;;;;;;;10.02;1.80;;;20.30;50.30;;;;;;5095568;28;20027;-68
2022/06/19 02:14:04;;;;;;;6.82;1.33;;;20.30;50.20;;;;;;5095508;28;20028;-68
2022/06/19 02:16:35;;;;;;;11.80;1.80;;;20.20;49.80;;;;;;5095467;28;20046;-68
2022/06/19 02:19:01;;;;;;;7.43;2.00;;;20.20;50.10;;;;;;5095498;28;20023;-68
2022/06/19 02:21:38;;;;;;;11.30;1.90;;;20.10;49.40;;;;;;5095367;28;20024;-68
2022/06/19 02:24:08;;;;;;;7.07;1.50;;;20.10;49.20;;;;;;5095158;28;20029;-68
2022/06/19 02:26:36;;;;;;;9.02;1.35;;;20.10;49.30;;;;;;5095415;28;20388;-68
2022/06/19 02:29:03;;;;;;;5.78;1.63;;;20.00;48.90;;;;;;5095188;28;20016;-68
2022/06/19 02:31:32;;;;;;;9.60;1.35;;;20.00;48.20;;;;;;5095229;28;20028;-68
2022/06/19 02:34:03;;;;;;;7.78;1.30;;;20.00;47.60;;;;;;5095145;28;20042;-68
2022/06/19 02:36:44;;;;;;;5.85;1.45;;;20.00;47.20;;;;;;5095252;28;20025;-68
2022/06/19 02:39:38;;;;;;;4.38;1.27;;;20.10;46.50;;;;;;5095055;28;20024;-68
2022/06/19 02:42:40;;;;;;;6.10;1.33;;;20.00;46.00;;;;;;5095122;28;20020;-68
2022/06/19 02:45:21;;;;;;;6.32;1.85;;;19.90;45.50;;;;;;5094886;28;20054;-68
2022/06/19 02:47:49;;;;;;;8.47;1.50;;;19.90;45.30;;;;;;5095054;28;20348;-68
2022/06/19 02:50:28;;;;;;;9.45;1.67;;;19.80;45.70;;;;;;5094827;28;20020;-68
2022/06/19 02:52:54;;;;;;;5.10;1.13;;;19.70;45.20;;;;;;5094728;28;20047;-68
2022/06/19 02:55:20;;;;;;;7.35;1.30;;;19.80;44.70;;;;;;5094803;28;20016;-68
2022/06/19 02:57:46;;;;;;;7.75;1.13;;;19.80;44.40;;;;;;5094697;28;20070;-68
2022/06/19 03:00:22;;;;;;;13.65;1.35;;;19.70;44.00;;;;;;5094682;28;20458;-68
2022/06/19 03:02:50;;;;;;;5.97;1.58;;;19.70;43.10;;;;;;5094652;28;20024;-68
2022/06/19 03:05:23;;;;;;;7.03;1.17;;;19.70;43.30;;;;;;5094586;28;20020;-68
2022/06/19 03:07:49;;;;;;;8.27;1.50;;;19.70;43.30;;;;;;5094484;28;20032;-68
2022/06/19 03:10:15;;;;;;;6.00;1.63;;;19.60;43.30;;;;;;5094265;28;20049;-68
2022/06/19 03:12:41;;;;;;;6.47;1.10;;;19.50;43.80;;;;;;5094396;28;20017;-68
2022/06/19 03:15:08;;;;;;;7.70;1.33;;;19.50;43.80;;;;;;5094299;28;20023;-68
2022/06/19 03:17:34;;;;;;;10.10;1.60;;;19.50;43.90;;;;;;5094279;28;20029;-68
2022/06/19 03:19:59;;;;;;;5.10;1.27;;;19.50;44.30;;;;;;5094274;28;20075;-68
2022/06/19 03:22:25;;;;;;;8.10;1.27;;;19.40;44.50;;;;;;5094239;28;20020;-68
2022/06/19 03:24:50;;;;;;;4.93;1.20;;;19.40;44.90;;;;;;5094246;28;20035;-68
2022/06/19 03:27:16;;;;;;;5.00;1.20;;;19.40;45.30;;;;;;5094155;28;20032;-68
2022/06/19 03:29:42;;;;;;;6.28;1.00;;;19.30;45.70;;;;;;5093980;28;20048;-68
2022/06/19 03:32:12;;;;;;;8.23;1.30;;;19.30;46.30;;;;;;5094051;28;20070;-68
2022/06/19 03:34:38;;;;;;;7.63;1.20;;;19.20;46.90;;;;;;5094062;28;20021;-68
2022/06/19 03:37:04;;;;;;;7.25;1.33;;;19.20;47.10;;;;;;5093900;28;20058;-68
2022/06/19 03:39:30;;;;;;;8.48;1.30;;;19.20;47.50;;;;;;5093973;28;20029;-68
2022/06/19 03:41:55;;;;;;;6.80;1.17;;;19.20;47.70;;;;;;5093822;28;20033;-68
2022/06/19 03:44:21;;;;;;;5.97;1.30;;;19.10;47.90;;;;;;5093715;28;20103;-68
2022/06/19 03:46:47;;;;;;;6.97;1.13;;;19.10;48.50;;;;;;5093846;28;20024;-68
2022/06/19 03:49:12;;;;;;;7.05;1.77;;;19.00;48.90;;;;;;5093691;28;20105;-69
2022/06/19 03:51:38;;;;;;;8.07;1.08;;;19.00;48.90;;;;;;5093686;28;20017;-68
2022/06/19 03:54:07;;;;;;;7.00;1.10;;;18.90;48.70;;;;;;5093640;28;20037;-68
2022/06/19 03:56:34;;;;;;;9.32;1.30;;;18.90;48.90;;;;;;5093614;28;20040;-68
2022/06/19 03:58:59;;;;;;;7.93;1.02;;;18.80;49.00;;;;;;5093549;28;20021;-68
2022/06/19 04:01:32;;;;;;;8.55;1.38;;;18.70;48.80;;;;;;5093499;28;20071;-68
2022/06/19 04:03:58;;;;;;;;;;;18.70;48.90;;;;;;5093343;28;20032;-68
2022/06/19 04:06:26;;;;;;;4.68;0.90;;;18.70;48.40;;;;;;5093438;28;19933;-68
2022/06/19 04:08:53;;;;;;;6.15;1.10;;;18.60;48.80;;;;;;5093247;28;20045;-68
2022/06/19 04:11:21;;;;;;;2.63;0.93;;;18.70;48.40;;;;;;5092523;28;20032;-69
2022/06/19 04:13:46;;;;;;;6.90;1.05;;;18.60;48.00;;;;;;5093343;28;20028;-68
2022/06/19 04:16:27;;;;;;;6.30;1.27;;;18.60;47.90;;;;;;5093367;28;20043;-68
2022/06/19 04:18:55;;;;;;;4.18;0.80;;;18.70;47.80;;;;;;5093340;28;20027;-68
2022/06/19 04:21:26;;;;;;;6.30;1.10;;;18.60;47.90;;;;;;5093256;28;20035;-68
2022/06/19 04:23:57;;;;;;;3.13;0.90;;;18.60;47.80;;;;;;5093218;28;20088;-69
2022/06/19 04:26:26;;;;;;;5.05;1.10;;;18.60;47.50;;;;;;5093216;28;20020;-68
2022/06/19 04:28:52;;;;;;;4.47;0.82;;;18.60;48.10;;;;;;5093148;28;20064;-68
2022/06/19 04:31:18;;;;;;;6.30;1.38;;;18.70;48.10;;;;;;5093202;28;20021;-68
2022/06/19 04:33:44;;;;;;;3.90;1.10;;;18.70;48.30;;;;;;5093114;28;20043;-68
2022/06/19 04:36:12;;;;;;;6.63;0.80;;;18.60;48.30;;;;;;5093144;28;20025;-68
2022/06/19 04:38:39;;;;;;;6.90;0.75;;;18.60;48.60;;;;;;5093121;28;20016;-69
2022/06/19 04:41:05;;;;;;;6.32;1.10;;;18.50;48.40;;;;;;5093135;28;20025;-69
2022/06/19 04:43:30;;;;;;;5.93;1.10;;;18.60;49.10;;;;;;5092993;28;20028;-68
2022/06/19 04:46:04;;;;;;;4.53;1.10;;;18.50;48.80;;;;;;5092137;28;20021;-68
2022/06/19 04:48:30;;;;;;;6.93;0.80;;;18.60;49.10;;;;;;5093029;28;20029;-68
2022/06/19 04:50:56;;;;;;;3.70;0.95;;;18.60;48.90;;;;;;5092999;28;20032;-68
2022/06/19 04:53:21;;;;;;;4.70;0.90;;;18.60;49.00;;;;;;5093006;28;20025;-68
2022/06/19 04:55:47;;;;;;;9.27;1.20;;;18.50;49.30;;;;;;5093077;28;20029;-68
2022/06/19 04:58:12;;;;;;;8.20;1.60;;;18.40;49.80;;;;;;5092907;28;20043;-68
2022/06/19 05:00:40;;;;;;;4.28;0.80;;;18.40;50.30;;;;;;5093019;28;20028;-68
2022/06/19 05:03:06;;;;;;;4.38;1.00;;;18.40;50.70;;;;;;5092914;28;20043;-69
2022/06/19 05:05:31;;;;;;;5.82;1.83;;;18.40;51.00;;;;;;5092823;28;20111;-68
2022/06/19 05:07:57;;;;;;;7.20;1.52;;;18.40;51.10;;;;;;5092857;28;20024;-68
2022/06/19 05:10:22;;;;;;;7.78;1.10;;;18.40;51.20;;;;;;5092689;28;20052;-68
2022/06/19 05:12:48;;;;;;;5.53;1.08;;;18.40;51.60;;;;;;5092788;28;20025;-68
2022/06/19 05:15:14;;;;;;;5.72;1.10;;;18.30;51.60;;;;;;5091731;28;20032;-69
2022/06/19 05:17:40;;;;;;;5.03;1.00;;;18.30;51.60;;;;;;5096379;28;20028;-68
2022/06/19 05:20:06;;;;;;;5.38;1.25;;;18.30;51.70;;;;;;5096558;28;20503;-68
2022/06/19 05:22:34;;;;;;;3.97;0.93;;;18.30;51.90;;;;;;5095564;28;20035;-68
2022/06/19 05:24:59;;;;;;;5.30;1.10;;;18.40;52.20;;;;;;5096498;28;20033;-68
2022/06/19 05:27:25;;;;;;;5.80;1.38;;;18.40;51.80;;;;;;5096400;28;20024;-68
2022/06/19 05:29:51;;;;;;;5.43;1.08;;;18.50;51.70;;;;;;5096290;28;20028;-68
2022/06/19 05:32:17;;;;;;;5.28;0.90;;;18.50;51.40;;;;;;5096286;28;20024;-68
2022/06/19 05:34:43;;;;;;;11.98;1.38;;;18.50;51.70;;;;;;5096254;28;20059;-68
2022/06/19 05:37:08;;;;;;;5.75;1.05;;;18.50;51.50;;;;;;5096229;28;20037;-68
2022/06/19 05:39:34;;;;;;;7.30;1.60;;;18.50;51.60;;;;;;5096316;28;20059;-68
2022/06/19 05:42:02;;;;;;;6.05;1.30;;;18.70;51.50;;;;;;5096125;28;20033;-68
2022/06/19 05:44:28;;;;;;;5.05;1.20;;;18.80;51.30;;;;;;5096001;28;20372;-68
2022/06/19 05:46:54;;;;;;;4.88;0.90;;;18.80;51.10;;;;;;5096082;28;20021;-68
2022/06/19 05:49:20;;;;;;;4.07;0.95;;;18.80;50.20;;;;;;5096005;28;20070;-68
2022/06/19 05:51:46;;;;;;;4.25;0.90;;;18.80;50.50;;;;;;5095958;28;20025;-68
2022/06/19 05:54:12;;;;;;;5.10;1.30;;;18.90;49.90;;;;;;5096003;28;20025;-68
2022/06/19 05:56:38;;;;;;;7.88;1.15;;;18.90;50.20;;;;;;5094835;28;20028;-68
2022/06/19 05:59:04;;;;;;;4.57;0.95;;;19.00;49.90;;;;;;5095855;28;20029;-68
2022/06/19 06:01:31;;;;;;;11.90;1.48;;;19.10;49.80;;;;;;5095742;28;20084;-68
2022/06/19 06:03:57;;;;;;;5.90;1.30;;;19.30;49.60;;;;;;5095657;28;20021;-68
2022/06/19 06:06:27;;;;;;;6.97;1.20;;;19.40;49.10;;;;;;5095677;28;20021;-68
2022/06/19 06:08:54;;;;;;;8.07;1.20;;;19.50;48.30;;;;;;5094432;28;20064;-68
2022/06/19 06:11:21;;;;;;;7.20;1.50;;;19.60;48.40;;;;;;5095647;28;20035;-68
2022/06/19 06:13:47;;;;;;;5.55;0.98;;;19.60;48.50;;;;;;5095578;28;20051;-68
2022/06/19 06:16:15;;;;;;;7.40;1.10;;;19.60;47.90;;;;;;5095554;28;20037;-68
2022/06/19 06:18:41;;;;;;;5.85;1.17;;;19.70;48.10;;;;;;5095497;28;20051;-68
2022/06/19 06:21:11;;;;;;;8.32;1.40;;;19.70;48.10;;;;;;5095586;28;20024;-68
2022/06/19 06:23:37;;;;;;;5.10;0.75;;;19.70;48.00;;;;;;5095458;28;20081;-68
2022/06/19 06:26:08;;;;;;;4.93;1.25;;;19.70;48.10;;;;;;5095358;28;20052;-68
2022/06/19 06:28:35;;;;;;;5.32;1.10;;;19.70;48.10;;;;;;5094920;28;20021;-68
2022/06/19 06:31:01;;;;;;;7.18;1.27;;;19.70;48.10;;;;;;5095276;28;20036;-68
2022/06/19 06:33:28;;;;;;;5.68;1.05;;;19.70;48.10;;;;;;5095196;28;20050;-68
2022/06/19 06:35:54;;;;;;;4.40;1.15;;;19.60;48.20;;;;;;5095283;28;20043;-68
2022/06/19 06:38:20;;;;;;;6.35;1.17;;;19.60;47.70;;;;;;5095015;28;20031;-64
2022/06/19 06:40:45;;;;;;;7.53;1.40;;;19.60;48.10;;;;;;5095038;28;20052;-64
2022/06/19 06:43:11;;;;;;;6.97;1.20;;;19.70;49.60;;;;;;5095014;28;20016;-64
2022/06/19 06:45:37;;;;;;;6.20;1.42;;;19.70;48.70;;;;;;5094959;28;20033;-63
2022/06/19 06:48:03;;;;;;;7.30;1.10;;;19.70;48.60;;;;;;5095072;28;20037;-64
2022/06/19 06:50:28;;;;;;;6.60;1.42;;;19.60;48.90;;;;;;5094871;28;20020;-64
2022/06/19 06:52:54;;;;;;;5.13;1.05;;;19.50;49.20;;;;;;5094854;28;20107;-64
2022/06/19 06:55:20;;;;;;;8.57;1.30;;;19.40;49.60;;;;;;5094667;28;20059;-63
2022/06/19 06:57:46;;;;;;;6.20;1.35;;;19.40;50.90;;;;;;5094756;28;20025;-65
2022/06/19 07:00:16;;;;;;;7.45;1.40;;;19.30;52.50;;;;;;5094830;28;20379;-64
2022/06/19 07:02:42;;;;;;;5.90;1.38;;;19.20;53.80;;;;;;5094727;28;20020;-64
2022/06/19 07:05:08;;;;;;;6.03;1.13;;;19.20;53.70;;;;;;5094466;28;20051;-64
2022/06/19 07:07:34;;;;;;;6.63;1.40;;;19.20;54.80;;;;;;5094578;28;20037;-64
2022/06/19 07:09:59;;;;;;;6.30;1.00;;;19.20;54.80;;;;;;5094385;28;20052;-64
2022/06/19 07:12:25;;;;;;;9.02;1.45;;;19.10;56.50;;;;;;5094595;28;20479;-64
2022/06/19 07:14:50;;;;;;;9.95;1.33;;;19.00;58.20;;;;;;5094413;28;20028;-64
2022/06/19 07:17:16;;;;;;;3.88;0.93;;;19.00;58.40;;;;;;5094356;28;20039;-64
2022/06/19 07:19:42;;;;;;;7.22;1.55;;;19.00;57.80;;;;;;5094325;28;20028;-64
2022/06/19 07:22:13;;;;;;;5.38;1.25;;;19.10;57.30;;;;;;5094384;28;20039;-64
2022/06/19 07:24:38;;;;;;;4.60;1.00;;;19.00;57.50;;;;;;5094040;28;20029;-64
2022/06/19 07:27:04;;;;;;;7.82;1.10;;;19.10;57.40;;;;;;5094187;28;20025;-64
2022/06/19 07:29:30;;;;;;;6.25;1.10;;;19.10;57.80;;;;;;5094072;28;20021;-64
2022/06/19 07:31:55;;;;;;;5.50;1.17;;;19.10;57.90;;;;;;5094088;28;20078;-64
2022/06/19 07:34:21;;;;;;;5.93;1.40;;;19.10;57.60;;;;;;5093108;28;20089;-64
2022/06/19 07:36:47;;;;;;;8.52;1.73;;;19.00;58.60;;;;;;5093966;28;20395;-64
2022/06/19 07:39:13;;;;;;;6.53;1.13;;;18.90;58.40;;;;;;5093200;28;20040;-64
2022/06/19 07:41:38;;;;;;;7.82;1.30;;;18.90;58.20;;;;;;5093949;28;20099;-64
2022/06/19 07:44:04;;;;;;;6.65;1.42;;;18.90;58.10;;;;;;5093814;28;20020;-64
2022/06/19 07:46:30;;;;;;;4.20;1.25;;;18.90;58.10;;;;;;5093832;28;20024;-64
2022/06/19 07:51:40;;;;;;;4.95;1.30;;;18.90;57.10;;;;;;5093845;28;20438;-68
2022/06/19 07:54:05;;;;;;;4.38;1.10;;;18.80;57.20;;;;;;5093660;28;20037;-68
2022/06/19 07:56:31;;;;;;;8.98;2.00;;;18.80;57.30;;;;;;5093665;28;20029;-67
2022/06/19 07:58:58;;;;;;;6.85;1.50;;;18.80;58.60;;;;;;5093648;28;20056;-68
2022/06/19 08:01:23;;;;;;;5.60;1.50;;;18.80;58.30;;;;;;5093712;28;20029;-68
2022/06/19 08:03:49;;;;;;;6.53;1.50;;;18.70;59.00;;;;;;5093519;28;20051;-68
2022/06/19 08:06:19;;;;;;;8.63;1.63;;;18.60;59.80;;;;;;5093493;28;20040;-68
2022/06/19 08:08:45;;;;;;;8.63;1.50;;;18.50;60.40;;;;;;5093347;28;20044;-68
2022/06/19 08:11:11;;;;;;;7.85;1.55;;;18.50;60.80;;;;;;5093551;28;20070;-68
2022/06/19 08:13:37;;;;;;;7.80;1.73;;;18.50;61.10;;;;;;5093441;28;20050;-67
2022/06/19 08:16:06;;;;;;;8.70;1.55;;;18.50;62.00;;;;;;5093404;28;20036;-67
2022/06/19 08:18:33;;;;;;;8.05;1.45;;;18.50;62.60;;;;;;5092365;28;20020;-67
2022/06/19 08:20:59;;;;;;;7.43;1.88;;;18.50;63.20;;;;;;5093378;28;20046;-68
2022/06/19 08:23:26;;;;;;;6.35;1.67;;;18.50;63.10;;;;;;5093261;28;20021;-67
2022/06/19 08:25:52;;;;;;;10.77;1.83;;;18.50;63.40;;;;;;5093192;28;20077;-67
2022/06/19 08:31:11;;;;;;;11.63;1.65;;;18.30;64.30;;;;;;5084716;28;20032;-67
2022/06/19 08:33:37;;;;;;;9.10;1.90;;;18.10;64.90;;;;;;5093242;28;20044;-67
2022/06/19 08:36:07;;;;;;;12.93;1.92;;;18.00;65.90;;;;;;5093243;28;20028;-67
2022/06/19 08:38:37;;;;;;;7.60;1.80;;;18.10;66.90;;;;;;5093312;28;20028;-68
2022/06/19 08:41:20;;;;;;;11.23;2.28;;;18.10;67.10;;;;;;5093160;28;20475;-67
2022/06/19 08:44:06;;;;;;;11.02;1.90;;;18.30;67.20;;;;;;5092011;28;20033;-67
2022/06/19 08:46:56;;;;;;;7.43;1.80;;;18.30;67.00;;;;;;5092984;28;20020;-67
2022/06/19 08:49:53;;;;;;;7.30;1.88;;;18.30;67.90;;;;;;5093178;28;20020;-67
2022/06/19 08:52:36;;;;;;;6.57;2.25;;;18.20;68.80;;;;;;5097323;28;20050;-67
2022/06/19 08:55:20;;;;;;;8.20;1.90;;;18.20;68.50;;;;;;5097102;28;20088;-67
2022/06/19 08:58:05;;;;;;;7.38;1.88;;;18.20;69.20;;;;;;5097076;28;20047;-67
2022/06/19 09:00:55;;;;;;;10.32;2.00;;;18.20;69.10;;;;;;5097082;28;20036;-68
2022/06/19 09:03:29;;;;;;;9.18;2.50;;;18.20;69.60;;;;;;5096973;28;20388;-68
2022/06/19 09:06:17;;;;;;;7.72;2.20;;;18.20;68.60;;;;;;5096902;28;20029;-68
2022/06/19 09:08:48;;;;;;;9.48;2.45;;;18.20;69.20;;;;;;5096744;28;20076;-69
2022/06/19 09:11:17;;;;;;;8.80;2.33;;;18.10;69.30;;;;;;5096985;28;20048;-68
2022/06/19 09:13:45;;;;;;;9.90;2.53;;;18.10;69.30;;;;;;5096690;28;20016;-68
2022/06/19 09:16:16;;;;;;;8.10;2.15;;;18.10;69.70;;;;;;5096665;28;20029;-68
2022/06/19 09:18:42;;;;;;;7.13;2.80;;;18.20;69.80;;;;;;5096645;28;20025;-67
2022/06/19 09:21:11;;;;;;;7.95;2.63;;;18.20;70.20;;;;;;5096584;28;20043;-67
2022/06/19 09:24:15;;;;;;;7.13;2.28;;;18.20;69.80;;;;;;5096438;28;20024;-67
2022/06/19 09:26:57;;;;;;;11.73;2.50;;;18.30;69.50;;;;;;5096509;28;20053;-68
2022/06/19 09:29:43;;;;;;;10.98;2.60;;;18.40;69.30;;;;;;5096224;28;20025;-68
2022/06/19 09:32:20;;;;;;;7.68;2.15;;;18.30;70.10;;;;;;5096066;28;20090;-68
2022/06/19 09:34:58;;;;;;;7.30;2.20;;;18.40;69.40;;;;;;5096483;28;20021;-68
2022/06/19 09:37:38;;;;;;;9.15;2.10;;;18.40;69.40;;;;;;5096424;28;20024;-68
2022/06/19 09:40:15;;;;;;;11.32;2.75;;;18.40;68.40;;;;;;5096247;28;20484;-68
2022/06/19 09:43:06;;;;;;;8.23;2.10;;;18.40;69.00;;;;;;5096236;28;20031;-68
2022/06/19 09:46:03;;;;;;;6.35;2.38;;;18.40;68.80;;;;;;5096119;28;20046;-68
2022/06/19 09:48:41;;;;;;;10.48;2.83;;;18.40;69.20;;;;;;5082583;28;20052;-68
2022/06/19 09:51:09;;;;;;;10.45;2.53;;;18.50;69.20;;;;;;5096094;28;20379;-68
2022/06/19 09:53:56;;;;;;;9.77;2.35;;;18.60;68.80;;;;;;5095941;28;20029;-69
2022/06/19 09:56:42;;;;;;;11.00;2.70;;;18.70;67.30;;;;;;5096085;28;20024;-68
2022/06/19 09:59:18;;;;;;;7.80;2.67;;;18.80;67.10;;;;;;5094844;28;20020;-68
2022/06/19 10:01:47;;;;;;;7.72;2.42;;;18.90;66.90;;;;;;5094984;28;20028;-67
2022/06/19 10:04:39;;;;;;;8.85;2.53;;;18.90;67.00;;;;;;5095692;28;20051;-68
2022/06/19 10:07:45;;;;;;;11.98;2.80;;;19.00;67.70;;;;;;5095259;28;20032;-68
2022/06/19 10:10:42;;;;;;;10.93;2.72;;;19.10;67.90;;;;;;5094595;28;20169;-68
2022/06/19 10:13:28;;;;;;;6.30;2.20;;;19.20;67.20;;;;;;5095746;28;20075;-68
2022/06/19 10:15:55;;;;;;;8.05;2.67;;;19.30;67.10;;;;;;5095255;28;20060;-68
2022/06/19 10:18:40;;;;;;;12.55;3.05;;;19.20;66.30;;;;;;5095522;28;20020;-69
2022/06/19 10:24:33;;;;;;;7.72;2.58;;;19.30;65.50;;;;;;5095501;28;20051;-69
2022/06/19 10:27:05;;;;;;;8.02;2.58;;;19.20;65.80;;;;;;5095387;28;20024;-69
2022/06/19 10:30:02;;;;;;;5.33;2.50;;;19.30;66.10;;;;;;5095278;28;20103;-69
2022/06/19 10:32:37;;;;;;;10.07;2.05;;;19.40;66.00;;;;;;5095272;28;20263;-70
2022/06/19 10:35:15;;;;;;;7.18;2.53;;;19.50;65.80;;;;;;5095334;28;20033;-69
2022/06/19 10:37:43;;;;;;;9.63;2.10;;;19.60;64.80;;;;;;5095213;28;20080;-69
2022/06/19 10:40:30;;;;;;;5.75;2.20;;;19.60;63.70;;;;;;5095093;28;20028;-69
2022/06/19 10:43:14;;;;;;;7.15;2.00;;;19.60;63.00;;;;;;5095053;28;20033;-69
2022/06/19 10:45:47;;;;;;;8.20;1.95;;;19.70;62.90;;;;;;5095039;28;20028;-68
2022/06/19 10:49:09;;;;;;;5.32;1.60;;;19.80;62.20;;;;;;5095088;28;20017;-68
2022/06/19 10:52:12;;;;;;;7.05;1.42;;;19.80;61.60;;;;;;5032989;28;20022;-68
2022/06/19 10:54:57;;;;;;;6.07;1.63;;;19.80;59.40;;;;;;5033232;28;20081;-68
2022/06/19 10:57:43;;;;;;;7.93;1.65;;;19.80;60.20;;;;;;5085548;28;20106;-68
2022/06/19 11:00:10;;;;;;;5.05;1.23;;;19.80;60.70;;;;;;5094825;28;20026;-68
2022/06/19 11:05:49;;;;;;;7.75;1.98;;;20.00;60.80;;;;;;5094696;28;20522;-68
2022/06/19 11:08:18;;;;;;;6.88;1.75;;;20.10;60.00;;;;;;5094656;28;20055;-68
2022/06/19 11:10:52;;;;;;;4.93;1.60;;;20.20;59.70;;;;;;5094303;28;20044;-68
2022/06/19 11:13:18;;;;;;;5.70;1.48;;;20.20;60.00;;;;;;5094444;28;20021;-68
2022/06/19 11:15:58;;;;;;;5.75;1.50;;;20.20;59.40;;;;;;5094385;28;20523;-68
2022/06/19 11:18:27;;;;;;;7.38;1.50;;;20.30;58.90;;;;;;5094288;28;20031;-68
2022/06/19 11:21:19;;;;;;;4.97;1.20;;;20.30;58.90;;;;;;5094327;28;20038;-68
2022/06/19 11:23:48;;;;;;;4.82;1.35;;;20.30;57.60;;;;;;5094160;28;20029;-68
2022/06/19 11:26:20;;;;;;;5.88;1.50;;;20.30;58.50;;;;;;5094094;28;20423;-68
2022/06/19 11:28:52;;;;;;;4.47;1.52;;;20.40;58.00;;;;;;5093915;28;20383;-68
2022/06/19 11:31:21;;;;;;;5.35;1.33;;;20.40;57.70;;;;;;5094243;28;20024;-68
2022/06/19 11:33:48;;;;;;;2.97;1.38;;;20.50;57.70;;;;;;5093999;28;20025;-68
2022/06/19 11:36:34;;;;;;;5.05;1.50;;;20.50;56.80;;;;;;5093956;28;20021;-68
2022/06/19 11:39:20;;;;;;;3.42;1.17;;;20.60;56.40;;;;;;5094017;28;20025;-68
2022/06/19 11:41:45;;;;;;;3.50;1.33;;;20.60;56.40;;;;;;5093750;28;20103;-68
2022/06/19 11:44:19;;;;;;;4.22;1.25;;;20.60;56.50;;;;;;5093686;28;20033;-68
2022/06/19 11:46:51;;;;;;;3.28;1.02;;;20.70;56.70;;;;;;5093744;28;20076;-70
2022/06/19 11:49:16;;;;;;;3.35;1.10;;;20.80;55.60;;;;;;5093738;28;20020;-69
2022/06/19 11:51:44;;;;;;;2.97;0.90;;;20.80;54.30;;;;;;5093671;28;20035;-70
2022/06/19 11:54:13;;;;;;;3.83;1.08;;;20.90;54.20;;;;;;5093650;28;20111;-70
2022/06/19 11:56:38;;;;;;;3.15;1.05;;;20.90;55.00;;;;;;5093612;28;20051;-70
2022/06/19 11:59:23;;;;;;;3.78;1.23;;;21.00;53.80;;;;;;5093577;28;20037;-70
2022/06/19 12:01:49;;;;;;;2.67;0.90;;;21.10;53.70;;;;;;5093576;28;20024;-70
2022/06/19 12:04:34;;;;;;;3.85;1.10;;;21.10;53.40;;;;;;5093451;28;20033;-71
2022/06/19 12:07:19;;;;;;;6.72;1.45;;;21.30;53.20;;;;;;5093541;28;20046;-70
2022/06/19 12:09:52;;;;;;;2.40;1.00;;;21.30;52.20;;;;;;5093366;28;20045;-71
2022/06/19 12:12:20;;;;;;;3.72;1.10;;;21.40;51.30;;;;;;5093424;28;20029;-70
2022/06/19 12:14:46;;;;;;;2.58;1.15;;;21.40;52.60;;;;;;5093462;28;20053;-71
2022/06/19 12:17:27;;;;;;;2.08;1.00;;;21.50;52.30;;;;;;5093355;28;20040;-70
2022/06/19 12:19:52;;;;;;;5.15;1.52;;;21.50;51.10;;;;;;5093370;28;20032;-70
2022/06/19 12:22:23;;;;;;;5.90;1.05;;;21.50;51.60;;;;;;5093294;28;20024;-69
2022/06/19 12:25:12;;;;;;;3.25;1.10;;;21.60;50.80;;;;;;5092826;28;20021;-70
2022/06/19 12:27:53;;;;;;;2.80;1.10;;;21.50;50.80;;;;;;5093398;28;20021;-71
2022/06/19 12:30:27;;;;;;;4.60;1.30;;;21.60;50.90;;;;;;5093260;28;20024;-71
2022/06/19 12:32:56;;;;;;;2.60;1.08;;;21.60;51.50;;;;;;5093235;28;20017;-71
2022/06/19 12:35:33;;;;;;;3.70;1.42;;;21.60;51.40;;;;;;5093277;28;20031;-71
2022/06/19 12:37:59;;;;;;;6.65;1.85;;;21.60;52.10;;;;;;5093204;28;20024;-71
2022/06/19 12:40:31;;;;;;;6.22;1.85;;;21.70;52.10;;;;;;5093111;28;20074;-70
2022/06/19 12:43:07;;;;;;;5.43;1.88;;;21.70;52.70;;;;;;5093286;28;20414;-70
2022/06/19 12:45:51;;;;;;;4.38;1.70;;;21.60;52.80;;;;;;5093232;28;20471;-71
2022/06/19 12:48:37;;;;;;;6.20;2.10;;;21.60;54.90;;;;;;5093024;28;20028;-71
2022/06/19 12:51:47;;;;;;;6.43;2.22;;;21.60;54.10;;;;;;5093232;28;20025;-71
2022/06/19 12:54:23;;;;;;;4.90;2.28;;;21.60;54.50;;;;;;5092541;28;20503;-71
2022/06/19 12:57:13;;;;;;;7.85;2.10;;;21.50;54.40;;;;;;5093035;28;20032;-69
2022/06/19 12:59:41;;;;;;;8.27;3.28;;;21.40;56.50;;;;;;5093081;28;20092;-69
2022/06/19 13:02:19;;;;;;;8.48;2.55;;;21.40;57.00;;;;;;5092916;28;20039;-69
2022/06/19 13:05:00;;;;;;;5.63;2.50;;;21.20;57.70;;;;;;5092890;28;20032;-69
2022/06/19 13:07:35;;;;;;;6.70;2.55;;;21.20;57.80;;;;;;5092904;28;20017;-69
2022/06/19 13:10:19;;;;;;;7.90;2.67;;;21.20;58.60;;;;;;5092644;28;20052;-69
2022/06/19 13:13:12;;;;;;;6.20;2.58;;;21.20;58.80;;;;;;5093033;28;20075;-69
2022/06/19 13:15:50;;;;;;;7.50;2.58;;;21.10;58.50;;;;;;5092958;28;20029;-69
2022/06/19 13:18:19;;;;;;;6.20;2.40;;;20.90;58.00;;;;;;5092929;28;20047;-69
2022/06/19 13:20:59;;;;;;;9.85;2.72;;;20.90;58.20;;;;;;5092712;28;20036;-69